Terminal Aerodrome Forecast
Issued by NWS

Home | Current Version | Previous Version | Text Only | Print | Product List | Glossary On
Versions: 1 2 3 4 5 6 7 8 9 10 11 12 13 14 15
000
FTUS43 KOAX 050520
TAFBFF
TAF
KBFF 050520Z 0506/0606 11009KT P6SM SCT110
     FM051500 16008KT P6SM SCT110
     FM052000 29012G23KT P6SM VCTS SCT080CB
      TEMPO 0520/0524 VRB20G35KT 2SM TSRAGS BKN035CB
     FM060000 35014KT P6SM VCSH BKN060=

USA.gov is the U.S. government's official web portal to all federal, state and local government web resources and services.